createdAt,value
2017-10-27T00:00:41.048Z,4.37
2017-10-27T00:03:09.511Z,4.63
2017-10-27T00:05:37.904Z,3.73
2017-10-27T00:08:06.327Z,4.70
2017-10-27T00:10:34.810Z,4.90
2017-10-27T00:13:03.131Z,3.03
2017-10-27T00:15:31.677Z,3.63
2017-10-27T00:18:00.096Z,3.10
2017-10-27T00:20:28.458Z,3.40
2017-10-27T00:22:56.906Z,3.70
2017-10-27T00:25:25.222Z,3.50
2017-10-27T00:27:53.537Z,3.00
2017-10-27T00:30:25.416Z,3.40
2017-10-27T00:32:53.806Z,3.17
2017-10-27T00:35:22.159Z,3.53
2017-10-27T00:37:50.540Z,3.30
2017-10-27T00:40:18.873Z,3.07
2017-10-27T00:42:47.851Z,3.20
2017-10-27T00:45:16.365Z,3.63
2017-10-27T00:47:44.723Z,3.47
2017-10-27T00:50:13.091Z,3.43
2017-10-27T00:52:41.513Z,3.33
2017-10-27T00:55:09.964Z,2.90
2017-10-27T00:57:38.424Z,3.30
2017-10-27T01:00:06.813Z,3.60
2017-10-27T01:02:35.168Z,3.33
2017-10-27T01:05:03.861Z,3.30
2017-10-27T01:07:32.240Z,3.00
2017-10-27T01:10:00.626Z,3.07
2017-10-27T01:12:28.977Z,3.87
2017-10-27T01:14:57.361Z,3.50
2017-10-27T01:17:25.684Z,3.60
2017-10-27T01:19:54.080Z,3.07
2017-10-27T01:22:22.460Z,3.50
2017-10-27T01:24:50.813Z,3.67
2017-10-27T01:27:19.190Z,3.17
2017-10-27T01:29:47.619Z,3.27
2017-10-27T01:32:15.953Z,3.30
2017-10-27T01:34:44.317Z,2.93
2017-10-27T01:37:12.754Z,3.30
2017-10-27T01:39:41.195Z,2.87
2017-10-27T01:42:09.682Z,2.53
2017-10-27T01:44:38.273Z,2.60
2017-10-27T01:47:06.719Z,3.23
2017-10-27T01:49:35.057Z,3.00
2017-10-27T01:52:03.417Z,3.20
2017-10-27T01:54:31.750Z,3.00
2017-10-27T01:57:00.071Z,2.70
2017-10-27T01:59:28.458Z,2.60
2017-10-27T02:01:56.820Z,2.90
2017-10-27T02:04:25.191Z,2.93
2017-10-27T02:06:53.662Z,2.87
2017-10-27T02:09:21.990Z,2.60
2017-10-27T02:11:51.334Z,4.47
2017-10-27T02:14:19.778Z,2.80
2017-10-27T02:16:48.094Z,2.87
2017-10-27T02:19:16.494Z,2.60
2017-10-27T02:21:44.975Z,2.80
2017-10-27T02:24:13.383Z,2.97
2017-10-27T02:26:41.741Z,2.53
2017-10-27T02:29:10.408Z,2.20
2017-10-27T02:31:40.070Z,3.60
2017-10-27T02:34:08.405Z,2.73
2017-10-27T02:36:36.857Z,2.10
2017-10-27T02:39:05.178Z,2.60
2017-10-27T02:41:33.630Z,2.50
2017-10-27T02:44:02.985Z,3.37
2017-10-27T02:46:31.446Z,3.07
2017-10-27T02:48:59.856Z,3.27
2017-10-27T02:51:28.270Z,2.90
2017-10-27T02:53:56.586Z,3.10
2017-10-27T02:56:24.940Z,3.77
2017-10-27T02:58:53.358Z,4.13
2017-10-27T03:01:21.686Z,3.67
2017-10-27T03:03:50.025Z,2.23
2017-10-27T03:06:18.443Z,3.00
2017-10-27T03:08:46.758Z,2.97
2017-10-27T03:11:15.541Z,3.40
2017-10-27T03:13:44.000Z,3.83
2017-10-27T03:16:12.430Z,3.03
2017-10-27T03:18:40.900Z,2.90
2017-10-27T03:21:09.688Z,2.90
2017-10-27T03:23:38.673Z,3.90
2017-10-27T03:26:07.093Z,3.60
2017-10-27T03:28:35.596Z,3.40
2017-10-27T03:31:03.951Z,4.20
2017-10-27T03:33:32.287Z,3.30
2017-10-27T03:36:00.694Z,3.83
2017-10-27T03:38:29.022Z,3.00
2017-10-27T03:40:57.341Z,3.03
2017-10-27T03:43:25.761Z,3.37
2017-10-27T03:45:54.141Z,3.23
2017-10-27T03:48:22.456Z,3.27
2017-10-27T03:50:51.035Z,4.40
2017-10-27T03:53:19.520Z,2.80
2017-10-27T03:55:47.897Z,3.73
2017-10-27T03:58:16.262Z,4.63
2017-10-27T04:00:44.586Z,3.90
2017-10-27T04:03:12.962Z,3.37
2017-10-27T04:05:41.345Z,3.43
2017-10-27T04:08:09.750Z,3.60
2017-10-27T04:10:38.236Z,4.27
2017-10-27T04:13:06.686Z,4.20
2017-10-27T04:15:35.538Z,3.93
2017-10-27T04:18:04.201Z,4.47
2017-10-27T04:20:32.585Z,4.60
2017-10-27T04:23:01.111Z,4.57
2017-10-27T04:25:29.461Z,3.30
2017-10-27T04:27:58.127Z,3.60
2017-10-27T04:30:26.477Z,3.60
2017-10-27T04:32:54.834Z,3.90
2017-10-27T04:35:23.318Z,3.73
2017-10-27T04:37:51.651Z,3.70
2017-10-27T04:40:20.055Z,4.00
2017-10-27T04:42:48.550Z,3.87
2017-10-27T04:45:16.971Z,4.40
2017-10-27T04:47:45.443Z,4.00
2017-10-27T04:50:14.063Z,3.60
2017-10-27T04:52:42.386Z,3.80
2017-10-27T04:55:10.887Z,4.10
2017-10-27T04:57:39.414Z,5.00
2017-10-27T05:00:07.841Z,5.30
2017-10-27T05:02:36.250Z,5.70
2017-10-27T05:05:04.666Z,5.10
2017-10-27T05:07:32.997Z,4.80
2017-10-27T05:10:01.390Z,4.73
2017-10-27T05:12:29.793Z,4.50
2017-10-27T05:14:58.297Z,4.73
2017-10-27T05:17:32.172Z,4.47
2017-10-27T05:20:06.057Z,6.03
2017-10-27T05:22:40.137Z,5.67
2017-10-27T05:25:08.608Z,7.00
2017-10-27T05:27:37.005Z,5.50
2017-10-27T05:30:05.906Z,5.70
2017-10-27T05:32:34.640Z,7.40
2017-10-27T05:35:02.996Z,5.90
2017-10-27T05:37:31.653Z,5.53
2017-10-27T05:40:00.048Z,7.37
2017-10-27T05:42:28.537Z,7.30
2017-10-27T05:44:57.186Z,5.93
2017-10-27T05:47:25.589Z,6.60
2017-10-27T05:49:54.061Z,6.77
2017-10-27T05:52:22.559Z,6.93
2017-10-27T05:54:50.916Z,6.47
2017-10-27T05:57:19.296Z,6.20
2017-10-27T05:59:47.845Z,8.13
2017-10-27T06:02:16.229Z,7.50
2017-10-27T06:04:44.858Z,8.00
2017-10-27T06:09:45.769Z,9.43
2017-10-27T06:12:14.419Z,8.97
2017-10-27T06:14:42.833Z,10.30
2017-10-27T06:17:11.255Z,11.07
2017-10-27T06:19:43.702Z,10.77
2017-10-27T06:22:12.439Z,11.30
2017-10-27T06:24:40.970Z,13.27
2017-10-27T06:27:09.369Z,14.03
2017-10-27T06:29:37.820Z,15.83
2017-10-27T06:32:06.314Z,14.40
2017-10-27T06:34:34.741Z,14.40
2017-10-27T06:37:04.254Z,14.00
2017-10-27T06:39:32.702Z,13.03
2017-10-27T06:42:01.257Z,16.00
2017-10-27T06:44:29.649Z,16.87
2017-10-27T06:46:58.044Z,16.60
2017-10-27T06:49:26.473Z,18.30
2017-10-27T06:51:54.929Z,15.30
2017-10-27T06:54:23.481Z,15.20
2017-10-27T06:56:52.002Z,15.93
2017-10-27T06:59:20.442Z,15.40
2017-10-27T07:01:48.926Z,16.93
2017-10-27T07:07:14.725Z,16.07
2017-10-27T07:09:46.848Z,18.37
2017-10-27T07:14:52.489Z,15.10
2017-10-27T07:17:20.889Z,16.27
2017-10-27T07:19:49.362Z,17.50
2017-10-27T07:24:50.592Z,16.27
2017-10-27T07:27:19.860Z,16.03
2017-10-27T07:29:48.334Z,16.27
2017-10-27T07:32:16.882Z,17.40
2017-10-27T07:34:45.472Z,17.67
2017-10-27T07:37:14.784Z,16.13
2017-10-27T07:39:43.842Z,15.97
2017-10-27T07:42:12.261Z,16.97
2017-10-27T07:47:13.395Z,16.97
2017-10-27T07:49:41.903Z,18.57
2017-10-27T07:52:10.679Z,17.40
2017-10-27T07:54:40.941Z,16.83
2017-10-27T07:57:09.601Z,17.70
2017-10-27T07:59:38.393Z,17.33
2017-10-27T08:02:06.929Z,17.33
2017-10-27T08:04:35.310Z,15.57
2017-10-27T08:07:04.734Z,16.30
2017-10-27T08:12:06.762Z,14.70
2017-10-27T08:14:37.233Z,15.40
2017-10-27T08:17:05.872Z,14.53
2017-10-27T08:22:07.047Z,13.70
2017-10-27T08:24:35.736Z,16.17
2017-10-27T08:27:04.155Z,13.80
2017-10-27T08:29:36.336Z,13.13
2017-10-27T08:32:04.822Z,14.03
2017-10-27T08:34:33.167Z,13.33
2017-10-27T08:37:03.857Z,14.40
2017-10-27T08:42:33.809Z,12.90
2017-10-27T08:45:02.152Z,13.37
2017-10-27T08:47:30.654Z,14.50
2017-10-27T08:49:59.140Z,13.53
2017-10-27T08:52:27.522Z,14.50
2017-10-27T08:54:55.956Z,15.43
2017-10-27T08:57:24.623Z,11.13
2017-10-27T08:59:53.140Z,10.30
2017-10-27T09:02:21.484Z,10.93
2017-10-27T09:04:49.991Z,7.47
2017-10-27T09:07:18.420Z,6.97
2017-10-27T09:09:46.739Z,5.60
2017-10-27T09:12:16.250Z,5.50
2017-10-27T09:14:44.687Z,4.67
2017-10-27T09:17:13.116Z,4.80
2017-10-27T09:19:43.572Z,4.70
2017-10-27T09:33:20.490Z,3.87
2017-10-27T09:35:49.080Z,4.63
2017-10-27T09:38:17.599Z,5.70
2017-10-27T09:40:45.970Z,6.10
2017-10-27T09:43:14.555Z,6.90
2017-10-27T09:45:43.031Z,6.90
2017-10-27T09:48:13.691Z,6.97
2017-10-27T09:50:42.551Z,7.10
2017-10-27T09:55:47.813Z,5.43
2017-10-27T10:03:35.615Z,4.70
2017-10-27T10:08:40.567Z,4.80
2017-10-27T10:16:21.429Z,3.20
2017-10-27T10:39:36.477Z,3.30
2017-10-27T10:55:38.522Z,3.73
2017-10-27T12:25:24.026Z,3.00
2017-10-27T12:33:34.383Z,4.27
2017-10-27T12:39:11.654Z,3.17
2017-10-27T12:41:40.328Z,4.20
2017-10-27T12:46:42.084Z,9.37
2017-10-27T12:51:43.210Z,6.93
2017-10-27T12:56:48.006Z,4.20
2017-10-27T12:59:16.938Z,6.53
2017-10-27T13:07:29.911Z,7.27
2017-10-27T13:09:58.623Z,6.97
2017-10-27T13:17:33.428Z,9.67
2017-10-27T13:22:35.251Z,6.43
2017-10-27T13:25:03.743Z,5.53
2017-10-27T13:27:32.207Z,5.93
2017-10-27T13:30:01.082Z,3.40
2017-10-27T13:35:02.878Z,4.00
2017-10-27T13:37:31.704Z,4.10
2017-10-27T13:42:34.635Z,3.73
2017-10-27T13:45:03.174Z,3.00
2017-10-27T13:47:31.592Z,3.00
2017-10-27T13:50:00.032Z,3.93
2017-10-27T13:52:50.932Z,4.67
2017-10-27T13:55:19.949Z,5.43
2017-10-27T13:57:48.439Z,3.20
2017-10-27T14:02:50.280Z,3.63
2017-10-27T14:05:19.405Z,4.40
2017-10-27T14:10:20.921Z,2.67
2017-10-27T14:15:25.594Z,4.97
2017-10-27T14:28:08.542Z,3.77
2017-10-27T14:30:37.349Z,3.70
2017-10-27T14:33:10.242Z,4.27
2017-10-27T14:35:38.873Z,4.10
2017-10-27T14:40:40.432Z,3.63
2017-10-27T14:51:04.567Z,4.03
2017-10-27T15:01:23.807Z,3.70
2017-10-27T15:03:52.282Z,3.27
2017-10-27T15:08:55.089Z,4.87
2017-10-27T15:11:23.739Z,4.57
2017-10-27T15:13:52.196Z,3.87
2017-10-27T15:24:36.923Z,3.40
2017-10-27T15:27:06.557Z,2.83
2017-10-27T15:32:09.543Z,2.30
2017-10-27T15:34:37.986Z,3.77
2017-10-27T15:39:43.378Z,3.30
2017-10-27T15:42:11.750Z,4.37
2017-10-27T15:47:15.760Z,3.80
2017-10-27T15:49:45.403Z,5.43
2017-10-27T15:59:56.644Z,6.17
2017-10-27T16:02:27.254Z,5.60
2017-10-27T16:04:56.792Z,5.10
2017-10-27T16:09:58.154Z,4.73
2017-10-27T16:12:27.180Z,6.00
2017-10-27T16:14:55.713Z,5.10
2017-10-27T16:17:24.328Z,6.10
2017-10-27T16:19:53.019Z,4.80
2017-10-27T16:24:54.491Z,7.10
2017-10-27T16:27:23.940Z,6.13
2017-10-27T16:32:27.055Z,7.47
2017-10-27T16:34:57.278Z,5.47
2017-10-27T16:40:58.147Z,6.43
2017-10-27T16:43:26.572Z,6.10
2017-10-27T16:51:39.001Z,6.00
2017-10-27T16:59:14.178Z,6.10
2017-10-27T17:04:20.748Z,5.80
2017-10-27T17:06:49.403Z,5.93
2017-10-27T17:15:01.348Z,7.63
2017-10-27T17:17:30.071Z,4.67
2017-10-27T17:20:00.515Z,7.17
2017-10-27T17:22:31.032Z,6.00
2017-10-27T17:25:00.876Z,5.27
2017-10-27T17:27:30.652Z,5.00
2017-10-27T17:32:33.851Z,5.90
2017-10-27T17:40:09.134Z,5.23
2017-10-27T17:42:37.903Z,5.33
2017-10-27T17:47:40.578Z,6.03
2017-10-27T17:52:42.143Z,7.27
2017-10-27T18:02:51.566Z,5.00
2017-10-27T18:05:20.094Z,6.10
2017-10-27T18:07:48.905Z,5.17
2017-10-27T18:10:20.900Z,5.27
2017-10-27T18:12:49.888Z,5.40
2017-10-27T18:25:41.931Z,5.43
2017-10-27T18:28:11.135Z,4.97
2017-10-27T18:30:44.322Z,5.50
2017-10-27T18:35:52.475Z,5.70
2017-10-27T18:38:21.005Z,5.23
2017-10-27T18:40:49.665Z,5.67
2017-10-27T18:43:18.098Z,5.40
2017-10-27T18:48:22.669Z,6.13
2017-10-27T18:50:53.625Z,6.13
2017-10-27T18:53:22.231Z,6.97
2017-10-27T18:55:52.513Z,6.30
2017-10-27T19:03:28.785Z,6.70
2017-10-27T19:08:31.676Z,6.43
2017-10-27T19:11:00.234Z,7.43
2017-10-27T19:13:28.667Z,7.80
2017-10-27T19:18:50.373Z,7.57
2017-10-27T19:21:18.918Z,7.30
2017-10-27T19:23:47.415Z,8.90
2017-10-27T19:28:48.429Z,8.50
2017-10-27T19:31:17.223Z,7.97
2017-10-27T19:36:24.183Z,8.57
2017-10-27T19:41:26.396Z,7.27
2017-10-27T19:43:55.722Z,8.10
2017-10-27T19:48:57.304Z,8.10
2017-10-27T19:51:25.737Z,7.43
2017-10-27T19:54:00.483Z,7.60
2017-10-27T19:56:30.293Z,7.80
2017-10-27T19:59:00.374Z,7.60
2017-10-27T20:04:09.416Z,8.43
2017-10-27T20:06:37.875Z,8.70
2017-10-27T20:09:06.262Z,8.90
2017-10-27T20:11:35.015Z,8.20
2017-10-27T20:16:37.761Z,7.30
2017-10-27T20:19:06.156Z,7.47
2017-10-27T20:21:34.571Z,7.63
2017-10-27T20:24:15.972Z,7.70
2017-10-27T20:26:44.418Z,8.47
2017-10-27T20:29:12.918Z,7.53
2017-10-27T20:31:41.594Z,8.20
2017-10-27T20:34:13.775Z,7.60
2017-10-27T20:36:42.258Z,8.10
2017-10-27T20:39:10.649Z,7.67
2017-10-27T20:41:39.171Z,7.70
2017-10-27T20:44:07.590Z,9.13
2017-10-27T20:46:36.016Z,8.37
2017-10-27T20:49:04.388Z,8.37
2017-10-27T20:51:32.938Z,7.77
2017-10-27T20:54:01.396Z,8.33
2017-10-27T20:56:29.890Z,7.57
2017-10-27T20:58:59.478Z,8.10
2017-10-27T21:01:27.960Z,10.20
2017-10-27T21:03:56.405Z,7.23
2017-10-27T21:06:26.791Z,8.47
2017-10-27T21:08:55.425Z,8.27
2017-10-27T21:11:23.845Z,8.33
2017-10-27T21:13:52.365Z,8.30
2017-10-27T21:16:20.744Z,7.50
2017-10-27T21:18:49.127Z,8.70
2017-10-27T21:21:17.569Z,8.70
2017-10-27T21:23:46.045Z,8.77
2017-10-27T21:26:14.384Z,9.23
2017-10-27T21:28:43.202Z,8.20
2017-10-27T21:31:11.610Z,9.33
2017-10-27T21:33:40.102Z,10.80
2017-10-27T21:36:08.600Z,9.27
2017-10-27T21:38:37.063Z,10.37
2017-10-27T21:41:07.188Z,9.63
2017-10-27T21:43:35.558Z,9.80
2017-10-27T21:46:03.965Z,9.80
2017-10-27T21:48:33.347Z,9.57
2017-10-27T21:51:01.792Z,10.50
2017-10-27T21:53:30.599Z,8.37
2017-10-27T21:55:59.027Z,10.00
2017-10-27T21:58:27.550Z,10.00
2017-10-27T22:00:55.933Z,10.50
2017-10-27T22:03:24.301Z,9.73
2017-10-27T22:05:52.821Z,9.20
2017-10-27T22:08:21.290Z,10.27
2017-10-27T22:10:49.690Z,9.30
2017-10-27T22:13:18.129Z,8.37
2017-10-27T22:15:46.620Z,10.00
2017-10-27T22:18:16.017Z,8.83
2017-10-27T22:20:44.482Z,9.10
2017-10-27T22:23:12.945Z,9.43
2017-10-27T22:25:41.304Z,9.37
2017-10-27T22:28:09.830Z,10.00
2017-10-27T22:30:38.253Z,10.23
2017-10-27T22:33:06.680Z,10.17
2017-10-27T22:35:35.176Z,9.50
2017-10-27T22:38:03.575Z,8.77
2017-10-27T22:40:31.979Z,10.17
2017-10-27T22:43:00.440Z,9.63
2017-10-27T22:45:28.814Z,10.27
2017-10-27T22:47:57.201Z,9.67
2017-10-27T22:50:25.718Z,9.33
2017-10-27T22:52:54.143Z,10.23
2017-10-27T22:55:32.473Z,9.30
2017-10-27T22:58:00.962Z,9.33
2017-10-27T23:00:29.347Z,10.67
2017-10-27T23:02:57.732Z,9.87
2017-10-27T23:05:26.086Z,11.90
2017-10-27T23:10:59.664Z,11.80
2017-10-27T23:13:28.097Z,10.23
2017-10-27T23:15:56.575Z,10.60
2017-10-27T23:18:25.010Z,12.00
2017-10-27T23:20:53.594Z,10.90
2017-10-27T23:23:21.998Z,10.50
2017-10-27T23:25:50.470Z,11.73
2017-10-27T23:28:18.882Z,10.93
2017-10-27T23:30:47.286Z,12.73
2017-10-27T23:33:15.661Z,10.90
2017-10-27T23:35:44.266Z,12.37
2017-10-27T23:38:12.721Z,12.43
2017-10-27T23:40:41.164Z,12.43
2017-10-27T23:43:10.543Z,12.13
2017-10-27T23:45:38.944Z,11.70
2017-10-27T23:48:07.288Z,10.53
2017-10-27T23:50:35.782Z,12.30
2017-10-27T23:53:04.872Z,11.13
2017-10-27T23:55:33.342Z,10.63
2017-10-27T23:58:01.815Z,11.53
